sensor_id;sensor_type;location;lat;lon;timestamp;P1;durP1;ratioP1;P2;durP2;ratioP2
43509;SDS011;29105;57.764;40.952;2023-05-19T00:01:50;10.25;;;3.95;;
43509;SDS011;29105;57.764;40.952;2023-05-19T00:04:16;4.57;;;2.35;;
43509;SDS011;29105;57.764;40.952;2023-05-19T00:06:43;4.45;;;2.47;;
43509;SDS011;29105;57.764;40.952;2023-05-19T00:09:15;4.63;;;2.28;;
43509;SDS011;29105;57.764;40.952;2023-05-19T00:11:41;2.25;;;2.05;;
43509;SDS011;29105;57.764;40.952;2023-05-19T00:14:08;3.33;;;1.35;;
43509;SDS011;29105;57.764;40.952;2023-05-19T00:16:34;1.63;;;1.10;;
43509;SDS011;29105;57.764;40.952;2023-05-19T00:19:02;4.13;;;1.20;;
43509;SDS011;29105;57.764;40.952;2023-05-19T00:21:28;4.32;;;0.93;;
43509;SDS011;29105;57.764;40.952;2023-05-19T00:23:55;2.28;;;0.75;;
43509;SDS011;29105;57.764;40.952;2023-05-19T00:26:22;6.70;;;1.27;;
43509;SDS011;29105;57.764;40.952;2023-05-19T00:28:49;1.90;;;0.63;;
43509;SDS011;29105;57.764;40.952;2023-05-19T00:31:15;4.28;;;1.50;;
43509;SDS011;29105;57.764;40.952;2023-05-19T00:33:41;2.15;;;0.50;;
43509;SDS011;29105;57.764;40.952;2023-05-19T00:36:07;2.53;;;0.65;;
43509;SDS011;29105;57.764;40.952;2023-05-19T00:38:33;2.05;;;0.73;;
43509;SDS011;29105;57.764;40.952;2023-05-19T00:41:00;1.10;;;0.70;;
43509;SDS011;29105;57.764;40.952;2023-05-19T00:43:26;2.90;;;0.82;;
43509;SDS011;29105;57.764;40.952;2023-05-19T00:45:52;2.55;;;0.90;;
43509;SDS011;29105;57.764;40.952;2023-05-19T00:48:18;7.18;;;0.70;;
43509;SDS011;29105;57.764;40.952;2023-05-19T00:50:44;2.13;;;0.90;;
43509;SDS011;29105;57.764;40.952;2023-05-19T00:53:10;3.30;;;0.80;;
43509;SDS011;29105;57.764;40.952;2023-05-19T00:55:37;2.83;;;1.02;;
43509;SDS011;29105;57.764;40.952;2023-05-19T00:58:05;3.75;;;0.88;;
43509;SDS011;29105;57.764;40.952;2023-05-19T01:00:31;3.30;;;0.90;;
43509;SDS011;29105;57.764;40.952;2023-05-19T01:02:58;1.58;;;0.93;;
43509;SDS011;29105;57.764;40.952;2023-05-19T01:05:24;4.78;;;1.45;;
43509;SDS011;29105;57.764;40.952;2023-05-19T01:07:50;1.67;;;0.95;;
43509;SDS011;29105;57.764;40.952;2023-05-19T01:10:18;3.53;;;0.80;;
43509;SDS011;29105;57.764;40.952;2023-05-19T01:12:45;4.22;;;1.05;;
43509;SDS011;29105;57.764;40.952;2023-05-19T01:15:11;2.80;;;0.60;;
43509;SDS011;29105;57.764;40.952;2023-05-19T01:17:40;3.75;;;0.73;;
43509;SDS011;29105;57.764;40.952;2023-05-19T01:20:15;2.35;;;0.90;;
43509;SDS011;29105;57.764;40.952;2023-05-19T01:23:07;1.88;;;0.98;;
43509;SDS011;29105;57.764;40.952;2023-05-19T01:31:11;2.67;;;1.30;;
43509;SDS011;29105;57.764;40.952;2023-05-19T01:33:36;5.53;;;1.50;;
43509;SDS011;29105;57.764;40.952;2023-05-19T01:36:04;2.78;;;1.80;;
43509;SDS011;29105;57.764;40.952;2023-05-19T01:38:32;2.55;;;1.55;;
43509;SDS011;29105;57.764;40.952;2023-05-19T01:40:58;2.83;;;1.80;;
43509;SDS011;29105;57.764;40.952;2023-05-19T01:43:25;6.07;;;1.65;;
43509;SDS011;29105;57.764;40.952;2023-05-19T01:45:52;4.53;;;2.45;;
43509;SDS011;29105;57.764;40.952;2023-05-19T01:48:19;3.20;;;2.10;;
43509;SDS011;29105;57.764;40.952;2023-05-19T01:50:45;2.13;;;1.75;;
43509;SDS011;29105;57.764;40.952;2023-05-19T01:53:11;4.10;;;2.10;;
43509;SDS011;29105;57.764;40.952;2023-05-19T01:55:55;5.82;;;2.70;;
43509;SDS011;29105;57.764;40.952;2023-05-19T01:58:30;2.88;;;1.95;;
43509;SDS011;29105;57.764;40.952;2023-05-19T02:16:46;2.63;;;1.52;;
43509;SDS011;29105;57.764;40.952;2023-05-19T02:19:32;6.70;;;2.33;;
43509;SDS011;29105;57.764;40.952;2023-05-19T02:22:02;3.75;;;1.60;;
43509;SDS011;29105;57.764;40.952;2023-05-19T02:24:28;3.92;;;1.65;;
43509;SDS011;29105;57.764;40.952;2023-05-19T02:26:53;2.40;;;1.75;;
43509;SDS011;29105;57.764;40.952;2023-05-19T02:29:19;4.80;;;1.52;;
43509;SDS011;29105;57.764;40.952;2023-05-19T02:31:45;1.55;;;1.42;;
43509;SDS011;29105;57.764;40.952;2023-05-19T02:34:11;4.22;;;2.10;;
43509;SDS011;29105;57.764;40.952;2023-05-19T02:36:38;2.75;;;1.40;;
43509;SDS011;29105;57.764;40.952;2023-05-19T02:39:08;2.30;;;0.98;;
43509;SDS011;29105;57.764;40.952;2023-05-19T02:41:35;2.08;;;1.42;;
43509;SDS011;29105;57.764;40.952;2023-05-19T02:44:01;3.25;;;1.45;;
43509;SDS011;29105;57.764;40.952;2023-05-19T02:46:27;3.40;;;1.25;;
43509;SDS011;29105;57.764;40.952;2023-05-19T02:48:52;2.38;;;1.35;;
43509;SDS011;29105;57.764;40.952;2023-05-19T02:51:18;2.92;;;1.20;;
43509;SDS011;29105;57.764;40.952;2023-05-19T02:53:43;2.17;;;0.80;;
43509;SDS011;29105;57.764;40.952;2023-05-19T02:56:09;2.47;;;1.73;;
43509;SDS011;29105;57.764;40.952;2023-05-19T02:58:35;2.65;;;1.42;;
43509;SDS011;29105;57.764;40.952;2023-05-19T03:01:00;2.45;;;1.50;;
43509;SDS011;29105;57.764;40.952;2023-05-19T03:03:26;2.60;;;1.38;;
43509;SDS011;29105;57.764;40.952;2023-05-19T03:05:52;3.58;;;1.77;;
43509;SDS011;29105;57.764;40.952;2023-05-19T03:08:18;3.58;;;1.23;;
43509;SDS011;29105;57.764;40.952;2023-05-19T03:10:47;3.03;;;1.60;;
43509;SDS011;29105;57.764;40.952;2023-05-19T03:13:13;4.35;;;1.50;;
43509;SDS011;29105;57.764;40.952;2023-05-19T03:15:41;2.42;;;1.48;;
43509;SDS011;29105;57.764;40.952;2023-05-19T03:18:07;2.55;;;1.33;;
43509;SDS011;29105;57.764;40.952;2023-05-19T03:20:33;2.33;;;1.10;;
43509;SDS011;29105;57.764;40.952;2023-05-19T03:22:58;1.88;;;1.17;;
43509;SDS011;29105;57.764;40.952;2023-05-19T03:25:25;3.25;;;1.70;;
43509;SDS011;29105;57.764;40.952;2023-05-19T03:27:51;3.65;;;1.80;;
43509;SDS011;29105;57.764;40.952;2023-05-19T03:30:17;1.60;;;1.45;;
43509;SDS011;29105;57.764;40.952;2023-05-19T03:32:42;3.13;;;1.30;;
43509;SDS011;29105;57.764;40.952;2023-05-19T03:35:08;4.78;;;1.70;;
43509;SDS011;29105;57.764;40.952;2023-05-19T03:37:34;1.50;;;1.13;;
43509;SDS011;29105;57.764;40.952;2023-05-19T03:40:00;3.10;;;1.13;;
43509;SDS011;29105;57.764;40.952;2023-05-19T03:42:25;4.10;;;1.20;;
43509;SDS011;29105;57.764;40.952;2023-05-19T03:44:51;2.60;;;1.15;;
43509;SDS011;29105;57.764;40.952;2023-05-19T03:47:17;6.55;;;1.15;;
43509;SDS011;29105;57.764;40.952;2023-05-19T03:49:42;3.28;;;0.88;;
43509;SDS011;29105;57.764;40.952;2023-05-19T03:52:08;2.72;;;1.60;;
43509;SDS011;29105;57.764;40.952;2023-05-19T03:54:34;3.05;;;1.20;;
43509;SDS011;29105;57.764;40.952;2023-05-19T03:57:00;6.05;;;1.58;;
43509;SDS011;29105;57.764;40.952;2023-05-19T03:59:27;2.22;;;0.80;;
43509;SDS011;29105;57.764;40.952;2023-05-19T04:01:52;4.22;;;1.30;;
43509;SDS011;29105;57.764;40.952;2023-05-19T04:04:18;1.90;;;0.88;;
43509;SDS011;29105;57.764;40.952;2023-05-19T04:06:44;1.38;;;0.85;;
43509;SDS011;29105;57.764;40.952;2023-05-19T04:09:11;3.45;;;1.33;;
43509;SDS011;29105;57.764;40.952;2023-05-19T04:11:38;3.80;;;1.02;;
43509;SDS011;29105;57.764;40.952;2023-05-19T04:14:04;3.33;;;1.15;;
43509;SDS011;29105;57.764;40.952;2023-05-19T04:16:30;2.55;;;1.15;;
43509;SDS011;29105;57.764;40.952;2023-05-19T04:18:56;4.80;;;0.90;;
43509;SDS011;29105;57.764;40.952;2023-05-19T04:21:22;5.45;;;1.52;;
43509;SDS011;29105;57.764;40.952;2023-05-19T04:23:47;2.05;;;1.35;;
43509;SDS011;29105;57.764;40.952;2023-05-19T04:26:13;3.63;;;1.55;;
43509;SDS011;29105;57.764;40.952;2023-05-19T04:28:39;4.97;;;1.70;;
43509;SDS011;29105;57.764;40.952;2023-05-19T04:31:06;4.30;;;1.00;;
43509;SDS011;29105;57.764;40.952;2023-05-19T04:33:37;2.78;;;1.10;;
43509;SDS011;29105;57.764;40.952;2023-05-19T04:36:03;2.70;;;1.67;;
43509;SDS011;29105;57.764;40.952;2023-05-19T04:38:33;3.38;;;1.42;;
43509;SDS011;29105;57.764;40.952;2023-05-19T04:40:59;5.40;;;1.92;;
43509;SDS011;29105;57.764;40.952;2023-05-19T04:43:26;6.40;;;1.45;;
43509;SDS011;29105;57.764;40.952;2023-05-19T04:45:52;2.40;;;1.40;;
43509;SDS011;29105;57.764;40.952;2023-05-19T04:48:19;8.88;;;2.05;;
43509;SDS011;29105;57.764;40.952;2023-05-19T04:50:46;2.55;;;1.17;;
43509;SDS011;29105;57.764;40.952;2023-05-19T04:53:13;2.05;;;1.10;;
43509;SDS011;29105;57.764;40.952;2023-05-19T04:55:39;2.35;;;1.15;;
43509;SDS011;29105;57.764;40.952;2023-05-19T04:58:05;3.70;;;1.10;;
43509;SDS011;29105;57.764;40.952;2023-05-19T05:00:31;2.83;;;1.48;;
43509;SDS011;29105;57.764;40.952;2023-05-19T05:02:59;3.05;;;1.40;;
43509;SDS011;29105;57.764;40.952;2023-05-19T05:05:29;2.08;;;1.20;;
43509;SDS011;29105;57.764;40.952;2023-05-19T05:07:55;2.22;;;1.48;;
43509;SDS011;29105;57.764;40.952;2023-05-19T05:10:21;3.20;;;1.65;;
43509;SDS011;29105;57.764;40.952;2023-05-19T05:12:47;2.72;;;1.33;;
43509;SDS011;29105;57.764;40.952;2023-05-19T05:15:13;6.55;;;1.70;;
43509;SDS011;29105;57.764;40.952;2023-05-19T05:17:39;4.95;;;1.30;;
43509;SDS011;29105;57.764;40.952;2023-05-19T05:20:05;3.22;;;1.48;;
43509;SDS011;29105;57.764;40.952;2023-05-19T05:22:32;6.50;;;2.20;;
43509;SDS011;29105;57.764;40.952;2023-05-19T05:24:58;2.97;;;0.93;;
43509;SDS011;29105;57.764;40.952;2023-05-19T05:27:25;3.45;;;1.10;;
43509;SDS011;29105;57.764;40.952;2023-05-19T05:29:51;1.27;;;0.70;;
43509;SDS011;29105;57.764;40.952;2023-05-19T05:32:18;3.78;;;0.85;;
43509;SDS011;29105;57.764;40.952;2023-05-19T05:34:44;3.40;;;1.27;;
43509;SDS011;29105;57.764;40.952;2023-05-19T05:37:10;2.55;;;0.65;;
43509;SDS011;29105;57.764;40.952;2023-05-19T05:39:35;2.72;;;0.90;;
43509;SDS011;29105;57.764;40.952;2023-05-19T05:42:01;1.75;;;0.70;;
43509;SDS011;29105;57.764;40.952;2023-05-19T05:44:27;1.55;;;0.88;;
43509;SDS011;29105;57.764;40.952;2023-05-19T05:46:53;4.18;;;1.25;;
43509;SDS011;29105;57.764;40.952;2023-05-19T05:49:18;1.73;;;0.65;;
43509;SDS011;29105;57.764;40.952;2023-05-19T05:51:44;2.75;;;0.88;;
43509;SDS011;29105;57.764;40.952;2023-05-19T05:54:11;3.53;;;0.80;;
43509;SDS011;29105;57.764;40.952;2023-05-19T05:56:37;7.38;;;0.70;;
43509;SDS011;29105;57.764;40.952;2023-05-19T05:59:03;1.73;;;0.98;;
43509;SDS011;29105;57.764;40.952;2023-05-19T06:01:30;2.85;;;1.20;;
43509;SDS011;29105;57.764;40.952;2023-05-19T06:03:55;2.00;;;0.80;;
43509;SDS011;29105;57.764;40.952;2023-05-19T06:06:21;3.80;;;1.17;;
43509;SDS011;29105;57.764;40.952;2023-05-19T06:08:47;2.78;;;0.85;;
43509;SDS011;29105;57.764;40.952;2023-05-19T06:11:13;3.05;;;0.90;;
43509;SDS011;29105;57.764;40.952;2023-05-19T06:13:38;2.42;;;1.00;;
43509;SDS011;29105;57.764;40.952;2023-05-19T06:16:07;2.13;;;0.82;;
43509;SDS011;29105;57.764;40.952;2023-05-19T06:18:33;2.83;;;0.88;;
43509;SDS011;29105;57.764;40.952;2023-05-19T06:20:58;1.55;;;0.70;;
43509;SDS011;29105;57.764;40.952;2023-05-19T06:23:25;2.47;;;0.93;;
43509;SDS011;29105;57.764;40.952;2023-05-19T06:25:53;2.05;;;1.10;;
43509;SDS011;29105;57.764;40.952;2023-05-19T06:28:19;3.30;;;1.67;;
43509;SDS011;29105;57.764;40.952;2023-05-19T06:30:44;2.80;;;1.63;;
43509;SDS011;29105;57.764;40.952;2023-05-19T06:33:10;1.55;;;0.80;;
43509;SDS011;29105;57.764;40.952;2023-05-19T06:35:36;1.13;;;0.85;;
43509;SDS011;29105;57.764;40.952;2023-05-19T06:38:02;2.35;;;0.70;;
43509;SDS011;29105;57.764;40.952;2023-05-19T06:40:28;2.10;;;0.80;;
43509;SDS011;29105;57.764;40.952;2023-05-19T06:42:53;1.95;;;0.95;;
43509;SDS011;29105;57.764;40.952;2023-05-19T06:45:19;2.58;;;1.13;;
43509;SDS011;29105;57.764;40.952;2023-05-19T06:47:46;3.30;;;1.08;;
43509;SDS011;29105;57.764;40.952;2023-05-19T06:50:12;1.88;;;1.00;;
43509;SDS011;29105;57.764;40.952;2023-05-19T06:52:38;5.15;;;1.35;;
43509;SDS011;29105;57.764;40.952;2023-05-19T06:55:04;2.58;;;0.47;;
43509;SDS011;29105;57.764;40.952;2023-05-19T06:57:31;2.42;;;1.17;;
43509;SDS011;29105;57.764;40.952;2023-05-19T06:59:57;2.45;;;0.95;;
43509;SDS011;29105;57.764;40.952;2023-05-19T07:02:23;3.78;;;1.27;;
43509;SDS011;29105;57.764;40.952;2023-05-19T07:04:48;2.53;;;0.93;;
43509;SDS011;29105;57.764;40.952;2023-05-19T07:07:16;3.30;;;1.00;;
43509;SDS011;29105;57.764;40.952;2023-05-19T07:09:42;2.78;;;1.10;;
43509;SDS011;29105;57.764;40.952;2023-05-19T07:12:08;1.88;;;0.90;;
43509;SDS011;29105;57.764;40.952;2023-05-19T07:14:33;1.80;;;0.57;;
43509;SDS011;29105;57.764;40.952;2023-05-19T07:17:00;2.03;;;1.20;;
43509;SDS011;29105;57.764;40.952;2023-05-19T07:19:26;3.70;;;1.30;;
43509;SDS011;29105;57.764;40.952;2023-05-19T07:21:52;1.95;;;1.20;;
43509;SDS011;29105;57.764;40.952;2023-05-19T07:24:19;3.08;;;1.23;;
43509;SDS011;29105;57.764;40.952;2023-05-19T07:26:45;4.65;;;1.63;;
43509;SDS011;29105;57.764;40.952;2023-05-19T07:29:11;2.40;;;1.13;;
43509;SDS011;29105;57.764;40.952;2023-05-19T07:31:36;5.70;;;1.40;;
43509;SDS011;29105;57.764;40.952;2023-05-19T07:34:02;1.45;;;0.90;;
43509;SDS011;29105;57.764;40.952;2023-05-19T07:36:28;3.15;;;0.93;;
43509;SDS011;29105;57.764;40.952;2023-05-19T07:38:54;2.85;;;0.68;;
43509;SDS011;29105;57.764;40.952;2023-05-19T07:41:20;5.57;;;1.20;;
43509;SDS011;29105;57.764;40.952;2023-05-19T07:43:45;3.30;;;0.80;;
43509;SDS011;29105;57.764;40.952;2023-05-19T07:46:11;7.40;;;1.30;;
43509;SDS011;29105;57.764;40.952;2023-05-19T07:48:37;4.32;;;1.30;;
43509;SDS011;29105;57.764;40.952;2023-05-19T07:51:02;2.90;;;0.90;;
43509;SDS011;29105;57.764;40.952;2023-05-19T07:53:28;3.78;;;0.75;;
43509;SDS011;29105;57.764;40.952;2023-05-19T07:55:54;3.40;;;0.80;;
43509;SDS011;29105;57.764;40.952;2023-05-19T07:58:20;2.45;;;0.63;;
43509;SDS011;29105;57.764;40.952;2023-05-19T08:00:46;2.95;;;1.15;;
43509;SDS011;29105;57.764;40.952;2023-05-19T08:03:12;2.00;;;0.77;;
43509;SDS011;29105;57.764;40.952;2023-05-19T08:05:37;2.85;;;1.02;;
43509;SDS011;29105;57.764;40.952;2023-05-19T08:08:03;2.47;;;0.63;;
43509;SDS011;29105;57.764;40.952;2023-05-19T08:10:29;1.95;;;0.52;;
43509;SDS011;29105;57.764;40.952;2023-05-19T08:12:55;1.55;;;0.63;;
43509;SDS011;29105;57.764;40.952;2023-05-19T08:15:20;2.13;;;0.75;;
43509;SDS011;29105;57.764;40.952;2023-05-19T08:17:46;4.22;;;0.55;;
43509;SDS011;29105;57.764;40.952;2023-05-19T08:20:12;4.50;;;0.30;;
43509;SDS011;29105;57.764;40.952;2023-05-19T08:22:38;3.50;;;0.90;;
43509;SDS011;29105;57.764;40.952;2023-05-19T08:25:04;4.95;;;0.68;;
43509;SDS011;29105;57.764;40.952;2023-05-19T08:27:31;4.70;;;0.65;;
43509;SDS011;29105;57.764;40.952;2023-05-19T08:29:57;5.38;;;1.00;;
43509;SDS011;29105;57.764;40.952;2023-05-19T08:32:23;10.07;;;0.70;;
43509;SDS011;29105;57.764;40.952;2023-05-19T08:34:49;7.80;;;0.90;;
43509;SDS011;29105;57.764;40.952;2023-05-19T08:37:15;9.27;;;1.33;;
43509;SDS011;29105;57.764;40.952;2023-05-19T08:39:41;4.85;;;1.80;;
43509;SDS011;29105;57.764;40.952;2023-05-19T08:42:06;5.78;;;1.00;;
43509;SDS011;29105;57.764;40.952;2023-05-19T08:44:34;13.18;;;1.60;;
43509;SDS011;29105;57.764;40.952;2023-05-19T08:47:04;3.88;;;0.82;;
43509;SDS011;29105;57.764;40.952;2023-05-19T08:49:31;7.07;;;1.17;;
43509;SDS011;29105;57.764;40.952;2023-05-19T08:52:12;6.05;;;0.77;;
43509;SDS011;29105;57.764;40.952;2023-05-19T08:54:44;4.18;;;0.50;;
43509;SDS011;29105;57.764;40.952;2023-05-19T08:57:11;8.68;;;0.88;;
43509;SDS011;29105;57.764;40.952;2023-05-19T08:59:37;1.00;;;0.35;;
43509;SDS011;29105;57.764;40.952;2023-05-19T09:02:04;7.45;;;0.88;;
43509;SDS011;29105;57.764;40.952;2023-05-19T09:04:30;9.18;;;0.70;;
43509;SDS011;29105;57.764;40.952;2023-05-19T09:06:56;4.50;;;1.23;;
43509;SDS011;29105;57.764;40.952;2023-05-19T09:09:22;9.88;;;1.10;;
43509;SDS011;29105;57.764;40.952;2023-05-19T09:11:48;8.43;;;0.93;;
43509;SDS011;29105;57.764;40.952;2023-05-19T09:14:14;4.63;;;0.50;;
43509;SDS011;29105;57.764;40.952;2023-05-19T09:16:39;7.05;;;0.63;;
43509;SDS011;29105;57.764;40.952;2023-05-19T09:19:12;4.80;;;0.95;;
43509;SDS011;29105;57.764;40.952;2023-05-19T09:21:39;4.05;;;0.60;;
43509;SDS011;29105;57.764;40.952;2023-05-19T09:24:05;6.25;;;0.50;;
43509;SDS011;29105;57.764;40.952;2023-05-19T09:26:36;7.88;;;0.47;;
43509;SDS011;29105;57.764;40.952;2023-05-19T09:29:09;2.97;;;0.82;;
43509;SDS011;29105;57.764;40.952;2023-05-19T09:31:54;6.55;;;1.08;;
43509;SDS011;29105;57.764;40.952;2023-05-19T09:34:24;3.60;;;0.63;;
43509;SDS011;29105;57.764;40.952;2023-05-19T09:36:51;2.17;;;0.50;;
43509;SDS011;29105;57.764;40.952;2023-05-19T09:39:21;5.47;;;0.73;;
43509;SDS011;29105;57.764;40.952;2023-05-19T09:41:51;5.20;;;1.08;;
43509;SDS011;29105;57.764;40.952;2023-05-19T09:44:24;3.97;;;0.52;;
43509;SDS011;29105;57.764;40.952;2023-05-19T09:46:55;8.57;;;1.23;;
43509;SDS011;29105;57.764;40.952;2023-05-19T09:49:24;5.75;;;0.90;;
43509;SDS011;29105;57.764;40.952;2023-05-19T09:51:53;6.07;;;0.60;;
43509;SDS011;29105;57.764;40.952;2023-05-19T09:54:21;7.78;;;1.42;;
43509;SDS011;29105;57.764;40.952;2023-05-19T09:56:57;2.53;;;0.68;;
43509;SDS011;29105;57.764;40.952;2023-05-19T09:59:25;8.98;;;1.15;;
43509;SDS011;29105;57.764;40.952;2023-05-19T10:01:55;3.50;;;0.52;;
43509;SDS011;29105;57.764;40.952;2023-05-19T10:04:22;4.00;;;0.50;;
43509;SDS011;29105;57.764;40.952;2023-05-19T10:06:52;8.93;;;1.13;;
43509;SDS011;29105;57.764;40.952;2023-05-19T10:09:22;3.40;;;0.43;;
43509;SDS011;29105;57.764;40.952;2023-05-19T10:11:53;5.23;;;0.87;;
43509;SDS011;29105;57.764;40.952;2023-05-19T10:14:24;8.93;;;1.25;;
43509;SDS011;29105;57.764;40.952;2023-05-19T10:16:51;2.75;;;0.85;;
43509;SDS011;29105;57.764;40.952;2023-05-19T10:19:21;4.25;;;0.60;;
43509;SDS011;29105;57.764;40.952;2023-05-19T10:21:48;2.63;;;0.65;;
43509;SDS011;29105;57.764;40.952;2023-05-19T10:24:15;5.03;;;0.70;;
43509;SDS011;29105;57.764;40.952;2023-05-19T10:26:47;2.92;;;0.30;;
43509;SDS011;29105;57.764;40.952;2023-05-19T10:29:16;2.97;;;0.82;;
43509;SDS011;29105;57.764;40.952;2023-05-19T10:31:45;2.13;;;0.35;;
43509;SDS011;29105;57.764;40.952;2023-05-19T10:36:48;6.50;;;1.00;;
43509;SDS011;29105;57.764;40.952;2023-05-19T10:39:24;2.67;;;0.80;;
43509;SDS011;29105;57.764;40.952;2023-05-19T10:47:39;6.05;;;0.40;;
43509;SDS011;29105;57.764;40.952;2023-05-19T10:50:06;10.45;;;0.52;;
43509;SDS011;29105;57.764;40.952;2023-05-19T10:52:35;5.15;;;0.75;;
43509;SDS011;29105;57.764;40.952;2023-05-19T10:55:01;6.93;;;0.55;;
43509;SDS011;29105;57.764;40.952;2023-05-19T10:57:29;9.10;;;1.15;;
43509;SDS011;29105;57.764;40.952;2023-05-19T10:59:59;3.50;;;0.50;;
43509;SDS011;29105;57.764;40.952;2023-05-19T11:02:38;2.95;;;0.40;;
43509;SDS011;29105;57.764;40.952;2023-05-19T11:05:06;3.75;;;0.55;;
43509;SDS011;29105;57.764;40.952;2023-05-19T11:07:33;6.35;;;0.68;;
43509;SDS011;29105;57.764;40.952;2023-05-19T11:09:59;4.38;;;0.65;;
43509;SDS011;29105;57.764;40.952;2023-05-19T11:12:30;4.55;;;0.40;;
43509;SDS011;29105;57.764;40.952;2023-05-19T11:15:05;5.07;;;0.30;;
43509;SDS011;29105;57.764;40.952;2023-05-19T11:17:32;5.30;;;0.40;;
43509;SDS011;29105;57.764;40.952;2023-05-19T11:19:59;1.30;;;0.25;;
43509;SDS011;29105;57.764;40.952;2023-05-19T11:22:25;32.63;;;3.90;;
43509;SDS011;29105;57.764;40.952;2023-05-19T11:24:54;6.20;;;0.50;;
43509;SDS011;29105;57.764;40.952;2023-05-19T11:27:33;7.50;;;0.75;;
43509;SDS011;29105;57.764;40.952;2023-05-19T11:32:33;2.63;;;0.20;;
43509;SDS011;29105;57.764;40.952;2023-05-19T11:35:00;3.38;;;0.30;;
43509;SDS011;29105;57.764;40.952;2023-05-19T11:37:29;6.03;;;0.73;;
43509;SDS011;29105;57.764;40.952;2023-05-19T11:39:56;3.50;;;0.40;;
43509;SDS011;29105;57.764;40.952;2023-05-19T11:42:22;2.67;;;0.68;;
43509;SDS011;29105;57.764;40.952;2023-05-19T11:44:48;5.35;;;0.73;;
43509;SDS011;29105;57.764;40.952;2023-05-19T11:47:14;6.45;;;0.75;;
43509;SDS011;29105;57.764;40.952;2023-05-19T11:49:44;7.95;;;1.02;;
43509;SDS011;29105;57.764;40.952;2023-05-19T11:52:10;5.03;;;1.00;;
43509;SDS011;29105;57.764;40.952;2023-05-19T11:54:36;6.10;;;0.75;;
43509;SDS011;29105;57.764;40.952;2023-05-19T11:57:03;4.05;;;0.50;;
43509;SDS011;29105;57.764;40.952;2023-05-19T11:59:30;3.78;;;0.40;;
43509;SDS011;29105;57.764;40.952;2023-05-19T12:02:00;4.45;;;0.63;;
43509;SDS011;29105;57.764;40.952;2023-05-19T12:04:28;8.57;;;0.77;;
43509;SDS011;29105;57.764;40.952;2023-05-19T12:06:55;4.00;;;0.85;;
43509;SDS011;29105;57.764;40.952;2023-05-19T12:09:23;2.75;;;0.30;;
43509;SDS011;29105;57.764;40.952;2023-05-19T12:11:50;3.45;;;0.57;;
43509;SDS011;29105;57.764;40.952;2023-05-19T12:14:16;0.75;;;0.20;;
43509;SDS011;29105;57.764;40.952;2023-05-19T12:16:42;7.70;;;0.60;;
43509;SDS011;29105;57.764;40.952;2023-05-19T12:19:08;2.78;;;0.35;;
43509;SDS011;29105;57.764;40.952;2023-05-19T12:21:34;4.63;;;0.28;;
43509;SDS011;29105;57.764;40.952;2023-05-19T12:24:00;2.33;;;0.60;;
43509;SDS011;29105;57.764;40.952;2023-05-19T12:26:26;1.52;;;0.30;;
43509;SDS011;29105;57.764;40.952;2023-05-19T12:28:52;4.60;;;0.17;;
43509;SDS011;29105;57.764;40.952;2023-05-19T12:31:18;2.40;;;0.22;;
43509;SDS011;29105;57.764;40.952;2023-05-19T12:33:45;2.20;;;0.30;;
43509;SDS011;29105;57.764;40.952;2023-05-19T12:36:16;4.85;;;0.52;;
43509;SDS011;29105;57.764;40.952;2023-05-19T12:38:42;7.57;;;0.70;;
43509;SDS011;29105;57.764;40.952;2023-05-19T12:41:11;6.78;;;0.93;;
43509;SDS011;29105;57.764;40.952;2023-05-19T12:43:37;4.10;;;0.52;;
43509;SDS011;29105;57.764;40.952;2023-05-19T12:46:10;17.92;;;2.45;;
43509;SDS011;29105;57.764;40.952;2023-05-19T12:48:42;5.88;;;1.02;;
43509;SDS011;29105;57.764;40.952;2023-05-19T12:51:09;5.63;;;0.65;;
43509;SDS011;29105;57.764;40.952;2023-05-19T12:53:37;4.30;;;0.60;;
43509;SDS011;29105;57.764;40.952;2023-05-19T12:56:13;3.10;;;0.40;;
43509;SDS011;29105;57.764;40.952;2023-05-19T12:58:40;6.47;;;0.40;;
43509;SDS011;29105;57.764;40.952;2023-05-19T13:01:06;2.67;;;0.40;;
43509;SDS011;29105;57.764;40.952;2023-05-19T13:03:38;3.35;;;0.30;;
43509;SDS011;29105;57.764;40.952;2023-05-19T13:06:07;3.97;;;0.57;;
43509;SDS011;29105;57.764;40.952;2023-05-19T13:08:34;2.53;;;0.63;;
43509;SDS011;29105;57.764;40.952;2023-05-19T13:10:59;1.50;;;0.35;;
43509;SDS011;29105;57.764;40.952;2023-05-19T13:13:25;2.97;;;0.30;;
43509;SDS011;29105;57.764;40.952;2023-05-19T13:15:51;3.83;;;0.50;;
43509;SDS011;29105;57.764;40.952;2023-05-19T13:18:17;8.05;;;0.73;;
43509;SDS011;29105;57.764;40.952;2023-05-19T13:20:43;5.70;;;0.52;;
43509;SDS011;29105;57.764;40.952;2023-05-19T13:23:11;3.10;;;0.30;;
43509;SDS011;29105;57.764;40.952;2023-05-19T13:25:37;2.70;;;0.30;;
43509;SDS011;29105;57.764;40.952;2023-05-19T13:28:03;5.07;;;0.40;;
43509;SDS011;29105;57.764;40.952;2023-05-19T13:30:30;7.97;;;1.10;;
43509;SDS011;29105;57.764;40.952;2023-05-19T13:32:57;0.93;;;0.35;;
43509;SDS011;29105;57.764;40.952;2023-05-19T13:35:22;11.23;;;0.60;;
43509;SDS011;29105;57.764;40.952;2023-05-19T13:37:48;3.25;;;0.60;;
43509;SDS011;29105;57.764;40.952;2023-05-19T13:40:14;5.30;;;0.40;;
43509;SDS011;29105;57.764;40.952;2023-05-19T13:42:41;2.22;;;0.20;;
43509;SDS011;29105;57.764;40.952;2023-05-19T13:45:07;0.85;;;0.50;;
43509;SDS011;29105;57.764;40.952;2023-05-19T13:47:33;1.50;;;0.30;;
43509;SDS011;29105;57.764;40.952;2023-05-19T13:49:59;3.47;;;0.20;;
43509;SDS011;29105;57.764;40.952;2023-05-19T13:52:26;7.05;;;0.30;;
43509;SDS011;29105;57.764;40.952;2023-05-19T13:54:52;0.90;;;0.40;;
43509;SDS011;29105;57.764;40.952;2023-05-19T13:57:22;1.40;;;0.35;;
43509;SDS011;29105;57.764;40.952;2023-05-19T13:59:48;2.42;;;0.50;;
43509;SDS011;29105;57.764;40.952;2023-05-19T14:02:13;1.35;;;0.50;;
43509;SDS011;29105;57.764;40.952;2023-05-19T14:04:40;2.95;;;0.38;;
43509;SDS011;29105;57.764;40.952;2023-05-19T14:07:06;2.35;;;0.40;;
43509;SDS011;29105;57.764;40.952;2023-05-19T14:09:32;3.47;;;0.20;;
43509;SDS011;29105;57.764;40.952;2023-05-19T14:11:58;3.47;;;0.63;;
43509;SDS011;29105;57.764;40.952;2023-05-19T14:14:24;7.35;;;0.40;;
43509;SDS011;29105;57.764;40.952;2023-05-19T14:16:50;2.75;;;0.30;;
43509;SDS011;29105;57.764;40.952;2023-05-19T14:19:15;3.42;;;0.95;;
43509;SDS011;29105;57.764;40.952;2023-05-19T14:21:41;1.48;;;0.35;;
43509;SDS011;29105;57.764;40.952;2023-05-19T14:24:07;4.22;;;0.60;;
43509;SDS011;29105;57.764;40.952;2023-05-19T14:26:32;0.65;;;0.30;;
43509;SDS011;29105;57.764;40.952;2023-05-19T14:28:58;3.45;;;0.40;;
43509;SDS011;29105;57.764;40.952;2023-05-19T14:31:24;0.90;;;0.20;;
43509;SDS011;29105;57.764;40.952;2023-05-19T14:33:50;1.13;;;0.30;;
43509;SDS011;29105;57.764;40.952;2023-05-19T14:36:16;1.50;;;0.73;;
43509;SDS011;29105;57.764;40.952;2023-05-19T14:38:41;3.58;;;0.80;;
43509;SDS011;29105;57.764;40.952;2023-05-19T14:41:07;1.50;;;0.30;;
43509;SDS011;29105;57.764;40.952;2023-05-19T14:43:33;4.85;;;0.40;;
43509;SDS011;29105;57.764;40.952;2023-05-19T14:45:58;4.43;;;0.55;;
43509;SDS011;29105;57.764;40.952;2023-05-19T14:48:24;3.80;;;0.45;;
43509;SDS011;29105;57.764;40.952;2023-05-19T14:50:50;0.80;;;0.30;;
43509;SDS011;29105;57.764;40.952;2023-05-19T14:53:17;1.77;;;0.30;;
43509;SDS011;29105;57.764;40.952;2023-05-19T14:55:42;2.53;;;0.43;;
43509;SDS011;29105;57.764;40.952;2023-05-19T14:58:08;4.40;;;0.32;;
43509;SDS011;29105;57.764;40.952;2023-05-19T15:00:34;6.07;;;0.70;;
43509;SDS011;29105;57.764;40.952;2023-05-19T15:03:00;1.33;;;0.35;;
43509;SDS011;29105;57.764;40.952;2023-05-19T15:05:25;4.78;;;0.30;;